Terminal Aerodrome Forecast
Issued by NWS

Home | Current Version | Previous Version | Text Only | Print | Product List | Glossary On
Versions: 1 2 3 4 5 6 7 8 9 10 11 12 13 14 15 16 17 18 19 20 21 22 23 24 25 26 27 28 29 30 31 32 33
558
FTUS43 KLOT 301500 AAA
TAFMDW
TAF AMD
KMDW 301500Z 3015/3112 07016G21KT P6SM -SHRA SCT008 OVC011
     FM301700 06013KT 3SM -SHRA OVC006
      TEMPO 3017/3019 2SM -TSRA BKN006 OVC020CB
     FM302200 01010KT 2SM -RADZ SCT003 OVC005
     FM310000 33009KT 3SM -DZ OVC003=

USA.gov is the U.S. government's official web portal to all federal, state and local government web resources and services.